createdAt,value
2022-10-09T00:01:22.817Z,100009.84
2022-10-09T00:03:51.355Z,100020.59
2022-10-09T00:06:24.812Z,100011.41
2022-10-09T00:08:52.731Z,100006.47
2022-10-09T00:11:28.479Z,100009.09
2022-10-09T00:13:56.630Z,100000.31
2022-10-09T00:16:24.332Z,100009.56
2022-10-09T00:18:53.271Z,99988.69
2022-10-09T00:21:32.408Z,100003.75
2022-10-09T00:24:02.731Z,99992.53
2022-10-09T00:26:30.268Z,99973.28
2022-10-09T00:28:57.952Z,99980.31
2022-10-09T00:31:25.679Z,99963.06
2022-10-09T00:33:53.361Z,99959.56
2022-10-09T00:36:23.928Z,99964.97
2022-10-09T00:38:51.901Z,99970.28
2022-10-09T00:41:25.165Z,99964.25
2022-10-09T00:43:57.356Z,99972.03
2022-10-09T00:46:42.151Z,99976.81
2022-10-09T00:49:22.116Z,99959.75
2022-10-09T00:51:51.379Z,99957.56
2022-10-09T00:54:22.970Z,99952.34
2022-10-09T00:56:51.115Z,99962.03
2022-10-09T00:59:19.665Z,99958.66
2022-10-09T01:01:47.258Z,99961.34
2022-10-09T01:04:15.315Z,99956.03
2022-10-09T01:07:07.237Z,99958.66
2022-10-09T01:10:03.631Z,99946.28
2022-10-09T01:12:52.117Z,99955.50
2022-10-09T01:15:39.279Z,99958.66
2022-10-09T01:18:36.281Z,99963.63
2022-10-09T01:21:17.073Z,99965.38
2022-10-09T01:24:06.067Z,99957.78
2022-10-09T01:26:56.542Z,99962.88
2022-10-09T01:29:27.061Z,99964.09
2022-10-09T01:31:56.138Z,99950.16
2022-10-09T01:34:24.239Z,99954.50
2022-10-09T01:36:52.895Z,99956.41
2022-10-09T01:39:22.819Z,99941.56
2022-10-09T01:41:52.543Z,99955.50
2022-10-09T01:44:23.327Z,99951.31
2022-10-09T01:46:51.027Z,99947.88
2022-10-09T01:49:39.338Z,99946.13
2022-10-09T01:52:48.473Z,99947.97
2022-10-09T01:55:35.930Z,99941.66
2022-10-09T01:58:18.104Z,99941.56
2022-10-09T02:01:16.662Z,99933.41
2022-10-09T02:03:48.558Z,99944.47
2022-10-09T02:06:18.019Z,99936.72
2022-10-09T02:08:51.542Z,99924.50
2022-10-09T02:11:19.418Z,99940.97
2022-10-09T02:13:48.413Z,99924.78
2022-10-09T02:16:15.787Z,99934.25
2022-10-09T02:18:53.931Z,99938.97
2022-10-09T02:21:24.737Z,99919.56
2022-10-09T02:23:55.071Z,99927.34
2022-10-09T02:26:23.220Z,99925.38
2022-10-09T02:28:51.504Z,99923.00
2022-10-09T02:31:30.356Z,99925.84
2022-10-09T02:34:00.178Z,99928.41
2022-10-09T02:36:28.512Z,99923.31
2022-10-09T02:38:56.504Z,99915.41
2022-10-09T02:41:24.778Z,99910.38
2022-10-09T02:43:52.619Z,99910.56
2022-10-09T02:46:20.219Z,99912.53
2022-10-09T02:48:47.718Z,99902.78
2022-10-09T02:51:15.805Z,99903.53
2022-10-09T02:53:43.707Z,99888.00
2022-10-09T02:56:11.420Z,99902.88
2022-10-09T02:58:39.662Z,99884.53
2022-10-09T03:01:07.242Z,99887.31
2022-10-09T03:03:34.745Z,99877.03
2022-10-09T03:06:05.464Z,99891.47
2022-10-09T03:08:33.175Z,99889.75
2022-10-09T03:11:00.592Z,99899.31
2022-10-09T03:13:28.107Z,99878.06
2022-10-09T03:15:55.563Z,99885.66
2022-10-09T03:18:23.066Z,99885.91
2022-10-09T03:20:50.445Z,99881.59
2022-10-09T03:23:17.909Z,99878.19
2022-10-09T03:25:45.271Z,99879.72
2022-10-09T03:28:15.267Z,99858.91
2022-10-09T03:30:42.796Z,99867.94
2022-10-09T03:33:10.172Z,99879.72
2022-10-09T03:35:37.619Z,99866.03
2022-10-09T03:38:05.027Z,99866.03
2022-10-09T03:40:32.544Z,99862.66
2022-10-09T03:42:59.943Z,99863.72
2022-10-09T03:45:27.398Z,99859.50
2022-10-09T03:47:54.802Z,99852.56
2022-10-09T03:50:22.235Z,99846.84
2022-10-09T03:52:49.900Z,99851.06
2022-10-09T03:55:17.597Z,99846.78
2022-10-09T03:57:44.998Z,99838.94
2022-10-09T04:00:13.025Z,99839.00
2022-10-09T04:02:40.497Z,99840.84
2022-10-09T04:05:08.646Z,99848.50
2022-10-09T04:07:36.028Z,99853.03
2022-10-09T04:10:04.427Z,99834.88
2022-10-09T04:12:31.818Z,99831.53
2022-10-09T04:14:59.310Z,99842.63
2022-10-09T04:17:26.843Z,99818.59
2022-10-09T04:19:54.208Z,99816.00
2022-10-09T04:22:21.611Z,99817.53
2022-10-09T04:24:49.071Z,99819.69
2022-10-09T04:27:16.882Z,99825.84
2022-10-09T04:29:44.311Z,99821.16
2022-10-09T04:32:11.728Z,99811.72
2022-10-09T04:34:39.233Z,99810.88
2022-10-09T04:37:06.666Z,99818.81
2022-10-09T04:39:34.047Z,99812.22
2022-10-09T04:42:01.458Z,99811.47
2022-10-09T04:44:28.898Z,99806.28
2022-10-09T04:46:56.326Z,99795.47
2022-10-09T04:49:23.732Z,99807.53
2022-10-09T04:51:51.249Z,99798.91
2022-10-09T04:54:18.747Z,99802.41
2022-10-09T04:56:46.177Z,99806.19
2022-10-09T04:59:13.644Z,99798.50
2022-10-09T05:01:41.190Z,99801.16
2022-10-09T05:04:09.231Z,99790.78
2022-10-09T05:06:36.663Z,99790.03
2022-10-09T05:09:04.381Z,99795.63
2022-10-09T05:11:31.784Z,99795.31
2022-10-09T05:13:59.776Z,99778.41
2022-10-09T05:16:29.255Z,99780.41
2022-10-09T05:18:59.083Z,99795.59
2022-10-09T05:21:27.886Z,99778.16
2022-10-09T05:23:55.779Z,99762.50
2022-10-09T05:26:25.053Z,99771.88
2022-10-09T05:28:52.780Z,99784.69
2022-10-09T05:31:25.921Z,99781.72
2022-10-09T05:33:55.119Z,99779.72
2022-10-09T05:36:22.655Z,99778.59
2022-10-09T05:38:53.043Z,99767.06
2022-10-09T05:41:22.761Z,99783.03
2022-10-09T05:43:50.430Z,99770.47
2022-10-09T05:46:19.444Z,99779.47
2022-10-09T05:48:53.259Z,99767.81
2022-10-09T05:51:23.704Z,99759.63
2022-10-09T05:53:51.445Z,99757.44
2022-10-09T05:56:24.857Z,99771.38
2022-10-09T05:58:55.235Z,99781.53
2022-10-09T06:01:24.914Z,99775.03
2022-10-09T06:03:55.695Z,99788.06
2022-10-09T06:06:25.546Z,99783.66
2022-10-09T06:08:53.665Z,99793.22
2022-10-09T06:11:28.462Z,99789.56
2022-10-09T06:13:56.656Z,99790.06
2022-10-09T06:16:26.991Z,99782.63
2022-10-09T06:18:56.004Z,99784.88
2022-10-09T06:21:25.437Z,99774.94
2022-10-09T06:23:55.858Z,99776.22
2022-10-09T06:26:24.582Z,99772.16
2022-10-09T06:28:53.150Z,99775.75
2022-10-09T06:31:25.579Z,99768.09
2022-10-09T06:33:54.211Z,99757.06
2022-10-09T06:36:25.188Z,99782.47
2022-10-09T06:38:53.809Z,99760.94
2022-10-09T06:41:26.640Z,99765.47
2022-10-09T06:44:04.415Z,99768.22
2022-10-09T06:46:34.871Z,99760.53
2022-10-09T06:49:03.842Z,99758.09
2022-10-09T06:51:33.148Z,99752.06
2022-10-09T06:54:02.695Z,99745.94
2022-10-09T06:56:32.080Z,99748.25
2022-10-09T06:59:01.405Z,99756.63
2022-10-09T07:01:32.232Z,99755.69
2022-10-09T07:04:03.011Z,99746.06
2022-10-09T07:06:32.049Z,99750.38
2022-10-09T07:09:05.485Z,99753.78
2022-10-09T07:11:38.423Z,99752.03
2022-10-09T07:14:09.716Z,99740.72
2022-10-09T07:16:39.945Z,99739.91
2022-10-09T07:19:11.290Z,99740.03
2022-10-09T07:21:41.504Z,99735.91
2022-10-09T07:24:09.538Z,99726.44
2022-10-09T07:26:39.559Z,99726.53
2022-10-09T07:29:09.220Z,99725.59
2022-10-09T07:31:36.822Z,99724.88
2022-10-09T07:34:06.349Z,99700.84
2022-10-09T07:36:34.194Z,99693.16
2022-10-09T07:39:02.714Z,99706.19
2022-10-09T07:41:30.818Z,99705.34
2022-10-09T07:43:58.729Z,99707.03
2022-10-09T07:46:32.234Z,99698.22
2022-10-09T07:49:02.078Z,99698.06
2022-10-09T07:51:30.527Z,99710.19
2022-10-09T07:54:00.083Z,99697.16
2022-10-09T07:56:33.190Z,99687.84
2022-10-09T07:59:26.859Z,99698.53
2022-10-09T08:01:54.407Z,99699.31
2022-10-09T08:04:22.091Z,99707.22
2022-10-09T08:06:49.827Z,99706.59
2022-10-09T08:09:18.492Z,99704.78
2022-10-09T08:11:45.971Z,99701.56
2022-10-09T08:14:19.015Z,99697.63
2022-10-09T08:16:48.275Z,99698.69
2022-10-09T08:19:15.825Z,99702.28
2022-10-09T08:21:43.370Z,99691.31
2022-10-09T08:24:11.666Z,99697.09
2022-10-09T08:26:39.143Z,99699.03
2022-10-09T08:29:13.828Z,99692.50
2022-10-09T08:31:43.580Z,99686.88
2022-10-09T08:34:12.171Z,99695.44
2022-10-09T08:36:39.675Z,99683.38
2022-10-09T08:39:07.219Z,99682.97
2022-10-09T08:41:56.330Z,99683.38
2022-10-09T08:44:50.482Z,99670.47
2022-10-09T08:47:42.963Z,99684.09
2022-10-09T08:50:16.687Z,99675.16
2022-10-09T08:52:53.322Z,99681.16
2022-10-09T08:55:27.568Z,99664.69
2022-10-09T08:58:00.069Z,99678.97
2022-10-09T09:00:46.159Z,99675.63
2022-10-09T09:03:35.179Z,99672.78
2022-10-09T09:06:46.432Z,99662.91
2022-10-09T09:09:25.740Z,99657.34
2022-10-09T09:12:17.383Z,99662.53
2022-10-09T09:15:07.165Z,99656.47
2022-10-09T09:17:50.231Z,99643.97
2022-10-09T09:20:48.319Z,99652.44
2022-10-09T09:23:16.661Z,99656.81
2022-10-09T09:25:46.320Z,99647.88
2022-10-09T09:28:16.964Z,99640.69
2022-10-09T09:31:13.477Z,99648.53
2022-10-09T09:33:53.214Z,99646.38
2022-10-09T09:36:23.212Z,99634.44
2022-10-09T09:39:36.266Z,99643.47
2022-10-09T09:41:41.358Z,99638.88
2022-10-09T09:44:13.813Z,99631.25
2022-10-09T09:46:42.392Z,99634.47
2022-10-09T09:49:21.480Z,99639.44
2022-10-09T09:51:50.000Z,99641.88
2022-10-09T09:54:26.744Z,99625.50
2022-10-09T09:57:12.964Z,99628.44
2022-10-09T09:59:44.043Z,99614.72
2022-10-09T10:02:17.653Z,99628.78
2022-10-09T10:05:06.525Z,99618.78
2022-10-09T10:07:38.999Z,99624.81
2022-10-09T10:10:08.168Z,99619.25
2022-10-09T10:12:53.032Z,99618.72
2022-10-09T10:15:27.459Z,99620.00
2022-10-09T10:18:07.568Z,99605.00
2022-10-09T10:20:54.996Z,99614.31
2022-10-09T10:23:33.458Z,99613.28
2022-10-09T10:26:15.091Z,99606.75
2022-10-09T10:29:20.786Z,99613.13
2022-10-09T10:31:59.727Z,99617.63
2022-10-09T10:34:32.161Z,99616.13
2022-10-09T10:37:06.221Z,99615.00
2022-10-09T10:39:49.639Z,99613.44
2022-10-09T10:42:32.141Z,99615.28
2022-10-09T10:45:22.640Z,99609.59
2022-10-09T10:47:54.400Z,99611.19
2022-10-09T10:50:26.616Z,99611.28
2022-10-09T10:53:20.435Z,99613.50
2022-10-09T10:55:53.013Z,99612.31
2022-10-09T10:58:30.719Z,99609.94
2022-10-09T11:01:27.691Z,99608.16
2022-10-09T11:04:39.903Z,99601.19
2022-10-09T11:07:31.790Z,99578.91
2022-10-09T11:10:17.787Z,99585.31
2022-10-09T11:12:50.913Z,99591.28
2022-10-09T11:15:21.397Z,99580.94
2022-10-09T11:18:04.219Z,99584.16
2022-10-09T11:21:04.203Z,99575.53
2022-10-09T11:23:37.559Z,99575.28
2022-10-09T11:26:31.064Z,99585.25
2022-10-09T11:29:02.169Z,99585.41
2022-10-09T11:31:35.912Z,99587.72
2022-10-09T11:34:09.748Z,99581.41
2022-10-09T11:36:42.391Z,99587.53
2022-10-09T11:39:20.517Z,99595.75
2022-10-09T11:41:51.338Z,99604.91
2022-10-09T11:44:24.866Z,99588.88
2022-10-09T11:47:02.893Z,99607.34
2022-10-09T11:50:10.336Z,99597.91
2022-10-09T11:52:58.896Z,99593.69
2022-10-09T11:55:31.973Z,99601.53
2022-10-09T11:58:26.133Z,99600.69
2022-10-09T12:00:56.484Z,99602.47
2022-10-09T12:03:35.961Z,99594.59
2022-10-09T12:06:14.930Z,99603.28
2022-10-09T12:08:54.964Z,99615.38
2022-10-09T12:11:23.762Z,99615.34
2022-10-09T12:13:56.169Z,99611.88
2022-10-09T12:16:46.118Z,99607.56
2022-10-09T12:19:23.426Z,99610.16
2022-10-09T12:21:57.136Z,99613.56
2022-10-09T12:24:27.979Z,99619.56
2022-10-09T12:26:59.842Z,99618.66
2022-10-09T12:29:50.799Z,99617.84
2022-10-09T12:32:26.979Z,99615.13
2022-10-09T12:34:55.819Z,99615.06
2022-10-09T12:37:33.928Z,99621.16
2022-10-09T12:40:26.863Z,99628.13
2022-10-09T12:42:56.482Z,99628.03
2022-10-09T12:45:31.171Z,99626.25
2022-10-09T12:48:01.054Z,99619.25
2022-10-09T12:50:33.526Z,99631.38
2022-10-09T12:53:04.825Z,99629.59
2022-10-09T12:55:34.941Z,99625.25
2022-10-09T12:58:18.699Z,99630.44
2022-10-09T13:00:50.430Z,99627.81
2022-10-09T13:03:23.672Z,99631.31
2022-10-09T13:05:52.185Z,99649.44
2022-10-09T13:08:26.818Z,99652.81
2022-10-09T13:10:55.656Z,99654.44
2022-10-09T13:13:26.895Z,99669.81
2022-10-09T13:16:07.006Z,99675.78
2022-10-09T13:18:34.502Z,99679.91
2022-10-09T13:21:24.546Z,99684.94
2022-10-09T13:23:52.524Z,99695.09
2022-10-09T13:26:28.732Z,99700.09
2022-10-09T13:28:58.491Z,99699.91
2022-10-09T13:31:26.601Z,99691.06
2022-10-09T13:33:54.237Z,99697.13
2022-10-09T13:36:21.732Z,99707.38
2022-10-09T13:38:49.534Z,99688.88
2022-10-09T13:41:23.788Z,99714.75
2022-10-09T13:43:53.740Z,99712.03
2022-10-09T13:46:21.300Z,99704.91
2022-10-09T13:48:48.749Z,99708.09
2022-10-09T13:51:16.196Z,99707.09
2022-10-09T13:53:43.601Z,99707.78
2022-10-09T13:56:11.183Z,99706.63
2022-10-09T13:58:38.639Z,99708.06
2022-10-09T14:01:08.801Z,99704.53
2022-10-09T14:03:36.670Z,99719.22
2022-10-09T14:06:04.450Z,99701.09
2022-10-09T14:08:32.221Z,99717.44
2022-10-09T14:11:00.927Z,99713.03
2022-10-09T14:13:28.902Z,99701.69
2022-10-09T14:15:56.339Z,99710.41
2022-10-09T14:18:23.931Z,99715.50
2022-10-09T14:20:51.412Z,99716.28
2022-10-09T14:23:18.856Z,99718.00
2022-10-09T14:25:46.373Z,99723.16
2022-10-09T14:28:13.904Z,99719.72
2022-10-09T14:30:42.657Z,99715.34
2022-10-09T14:33:10.249Z,99711.00
2022-10-09T14:35:38.374Z,99724.00
2022-10-09T14:38:05.858Z,99717.84
2022-10-09T14:40:33.282Z,99734.13
2022-10-09T14:43:00.819Z,99734.75
2022-10-09T14:45:29.139Z,99745.00
2022-10-09T14:47:57.104Z,99737.88
2022-10-09T14:50:24.569Z,99749.91
2022-10-09T14:52:52.441Z,99753.19
2022-10-09T14:55:20.058Z,99762.50
2022-10-09T14:57:47.559Z,99757.25
2022-10-09T15:00:15.461Z,99769.16
2022-10-09T15:05:15.322Z,99771.50
2022-10-09T15:07:43.479Z,99776.53
2022-10-09T15:10:12.409Z,99773.91
2022-10-09T15:12:40.632Z,99778.06
2022-10-09T15:15:08.638Z,99768.38
2022-10-09T15:17:36.233Z,99782.13
2022-10-09T15:20:03.951Z,99790.63
2022-10-09T15:22:31.374Z,99795.78
2022-10-09T15:24:58.910Z,99800.00
2022-10-09T15:27:26.477Z,99788.63
2022-10-09T15:29:53.985Z,99799.03
2022-10-09T15:32:21.499Z,99808.47
2022-10-09T15:34:49.062Z,99781.44
2022-10-09T15:37:16.586Z,99797.94
2022-10-09T15:39:44.116Z,99804.00
2022-10-09T15:42:11.602Z,99797.91
2022-10-09T15:44:41.669Z,99801.22
2022-10-09T15:47:09.336Z,99800.31
2022-10-09T15:49:36.763Z,99804.56
2022-10-09T15:52:04.382Z,99801.97
2022-10-09T15:54:31.892Z,99814.13
2022-10-09T15:56:59.453Z,99812.31
2022-10-09T15:59:27.010Z,99817.53
2022-10-09T16:01:54.492Z,99810.69
2022-10-09T16:04:22.050Z,99812.34
2022-10-09T16:06:49.563Z,99802.72
2022-10-09T16:09:17.345Z,99815.81
2022-10-09T16:11:44.854Z,99814.84
2022-10-09T16:14:12.367Z,99812.97
2022-10-09T16:16:39.829Z,99815.53
2022-10-09T16:19:07.763Z,99827.78
2022-10-09T16:21:35.248Z,99817.38
2022-10-09T16:24:03.040Z,99814.06
2022-10-09T16:26:30.579Z,99817.47
2022-10-09T16:29:00.569Z,99824.44
2022-10-09T16:31:32.005Z,99811.44
2022-10-09T16:33:59.635Z,99818.19
2022-10-09T16:36:27.691Z,99820.88
2022-10-09T16:38:56.446Z,99819.91
2022-10-09T16:41:24.427Z,99827.69
2022-10-09T16:43:54.842Z,99833.69
2022-10-09T16:46:22.748Z,99826.81
2022-10-09T16:48:52.072Z,99829.34
2022-10-09T16:51:24.999Z,99821.50
2022-10-09T16:53:55.007Z,99825.03
2022-10-09T16:56:25.161Z,99831.75
2022-10-09T16:58:55.783Z,99830.13
2022-10-09T17:01:24.348Z,99835.19
2022-10-09T17:03:54.446Z,99829.94
2022-10-09T17:06:25.015Z,99827.19
2022-10-09T17:08:54.694Z,99823.88
2022-10-09T17:11:22.926Z,99829.75
2022-10-09T17:13:50.552Z,99824.53
2022-10-09T17:16:21.804Z,99830.44
2022-10-09T17:18:50.353Z,99838.13
2022-10-09T17:21:19.081Z,99837.16
2022-10-09T17:23:47.224Z,99834.50
2022-10-09T17:26:19.804Z,99822.31
2022-10-09T17:28:48.025Z,99830.09
2022-10-09T17:31:22.089Z,99834.25
2022-10-09T17:33:55.533Z,99831.56
2022-10-09T17:36:26.029Z,99844.63
2022-10-09T17:38:53.887Z,99839.47
2022-10-09T17:41:26.485Z,99843.00
2022-10-09T17:43:55.610Z,99839.41
2022-10-09T17:46:24.146Z,99833.22
2022-10-09T17:48:53.494Z,99830.63
2022-10-09T17:51:25.469Z,99831.44
2022-10-09T17:53:54.556Z,99851.25
2022-10-09T17:56:22.444Z,99852.94
2022-10-09T17:58:50.301Z,99845.13
2022-10-09T18:01:18.362Z,99856.34
2022-10-09T18:03:46.184Z,99847.56
2022-10-09T18:06:18.792Z,99856.34
2022-10-09T18:08:47.029Z,99858.81
2022-10-09T18:11:16.893Z,99862.19
2022-10-09T18:13:45.803Z,99863.75
2022-10-09T18:16:16.459Z,99871.47
2022-10-09T18:18:44.899Z,99860.22
2022-10-09T18:21:17.022Z,99856.66
2022-10-09T18:23:46.309Z,99856.63
2022-10-09T18:26:17.056Z,99865.28
2022-10-09T18:28:48.225Z,99857.41
2022-10-09T18:31:19.504Z,99871.22
2022-10-09T18:33:47.356Z,99860.78
2022-10-09T18:36:20.558Z,99879.84
2022-10-09T18:38:53.913Z,99875.53
2022-10-09T18:41:23.258Z,99889.44
2022-10-09T18:43:51.711Z,99892.00
2022-10-09T18:46:25.980Z,99890.28
2022-10-09T18:48:55.262Z,99885.16
2022-10-09T18:51:26.547Z,99888.50
2022-10-09T18:53:58.522Z,99901.59
2022-10-09T18:56:26.247Z,99894.66
2022-10-09T18:58:53.725Z,99905.84
2022-10-09T19:01:21.285Z,99907.56
2022-10-09T19:03:50.166Z,99914.41
2022-10-09T19:06:19.295Z,99905.78
2022-10-09T19:08:47.121Z,99907.50
2022-10-09T19:11:17.074Z,99904.94
2022-10-09T19:13:45.342Z,99909.03
2022-10-09T19:16:12.937Z,99911.56
2022-10-09T19:18:40.576Z,99915.16
2022-10-09T19:21:13.415Z,99923.81
2022-10-09T19:23:41.547Z,99916.03
2022-10-09T19:26:09.090Z,99904.81
2022-10-09T19:28:38.680Z,99915.25
2022-10-09T19:31:08.146Z,99911.56
2022-10-09T19:33:36.051Z,99927.38
2022-10-09T19:36:04.233Z,99913.34
2022-10-09T19:38:31.902Z,99919.53
2022-10-09T19:41:11.377Z,99919.72
2022-10-09T19:43:39.006Z,99916.00
2022-10-09T19:46:09.614Z,99913.50
2022-10-09T19:48:37.356Z,99921.38
2022-10-09T19:51:09.755Z,99924.84
2022-10-09T19:53:37.702Z,99930.88
2022-10-09T19:56:33.155Z,99930.31
2022-10-09T19:59:04.216Z,99914.25
2022-10-09T20:01:35.488Z,99917.78
2022-10-09T20:04:07.909Z,99923.19
2022-10-09T20:06:40.955Z,99926.66
2022-10-09T20:09:10.023Z,99923.09
2022-10-09T20:11:37.927Z,99925.75
2022-10-09T20:14:06.173Z,99929.88
2022-10-09T20:16:33.886Z,99940.44
2022-10-09T20:19:02.547Z,99927.41
2022-10-09T20:21:32.633Z,99931.84
2022-10-09T20:24:01.410Z,99928.28
2022-10-09T20:26:31.514Z,99925.78
2022-10-09T20:29:01.973Z,99914.56
2022-10-09T20:31:30.774Z,99920.63
2022-10-09T20:33:58.582Z,99919.75
2022-10-09T20:36:32.603Z,99922.34
2022-10-09T20:39:03.248Z,99913.78
2022-10-09T20:41:31.961Z,99930.03
2022-10-09T20:44:01.284Z,99930.28
2022-10-09T20:46:31.320Z,99929.34
2022-10-09T20:48:59.061Z,99925.31
2022-10-09T20:51:29.447Z,99931.19
2022-10-09T20:54:01.302Z,99930.47
2022-10-09T20:56:30.845Z,99929.50
2022-10-09T20:59:00.048Z,99929.44
2022-10-09T21:01:28.808Z,99925.91
2022-10-09T21:03:59.132Z,99931.94
2022-10-09T21:06:27.125Z,99932.09
2022-10-09T21:08:55.255Z,99935.50
2022-10-09T21:11:25.840Z,99932.00
2022-10-09T21:13:53.642Z,99936.38
2022-10-09T21:16:24.204Z,99935.75
2022-10-09T21:18:57.612Z,99937.41
2022-10-09T21:21:25.663Z,99935.63
2022-10-09T21:23:54.908Z,99930.41
2022-10-09T21:26:23.457Z,99920.03
2022-10-09T21:28:55.458Z,99933.94
2022-10-09T21:31:28.674Z,99941.84
2022-10-09T21:33:57.523Z,99938.31
2022-10-09T21:36:36.814Z,99940.13
2022-10-09T21:39:06.449Z,99952.94
2022-10-09T21:41:35.330Z,99959.88
2022-10-09T21:44:03.670Z,99963.22
2022-10-09T21:46:31.238Z,99959.88
2022-10-09T21:48:59.146Z,99969.41
2022-10-09T21:51:27.852Z,99969.38
2022-10-09T21:53:55.687Z,99959.09
2022-10-09T21:56:23.402Z,99971.00
2022-10-09T21:58:51.216Z,99974.25
2022-10-09T22:01:18.948Z,99984.59
2022-10-09T22:03:46.432Z,99968.72
2022-10-09T22:06:19.271Z,99988.72
2022-10-09T22:08:47.997Z,99989.50
2022-10-09T22:11:16.216Z,99976.47
2022-10-09T22:13:43.792Z,99986.78
2022-10-09T22:16:13.962Z,100000.81
2022-10-09T22:18:41.967Z,99990.25
2022-10-09T22:21:15.106Z,99998.06
2022-10-09T22:23:42.773Z,99992.75
2022-10-09T22:26:19.595Z,99995.34
2022-10-09T22:28:47.167Z,100003.94
2022-10-09T22:31:18.001Z,100002.25
2022-10-09T22:33:50.775Z,100006.44
2022-10-09T22:36:20.611Z,100016.66
2022-10-09T22:38:48.371Z,100013.13
2022-10-09T22:41:18.302Z,100025.31
2022-10-09T22:43:47.451Z,100019.38
2022-10-09T22:46:21.030Z,100016.66
2022-10-09T22:48:48.587Z,100028.00
2022-10-09T22:51:17.815Z,100034.81
2022-10-09T22:53:46.036Z,100049.28
2022-10-09T22:56:25.445Z,100050.38
2022-10-09T22:58:54.051Z,100037.81
2022-10-09T23:01:30.067Z,100052.81
2022-10-09T23:03:59.355Z,100057.66
2022-10-09T23:06:27.115Z,100040.19
2022-10-09T23:08:54.833Z,100047.09
2022-10-09T23:11:23.383Z,100056.69
2022-10-09T23:13:55.619Z,100044.47
2022-10-09T23:16:24.204Z,100050.00
2022-10-09T23:18:51.689Z,100046.59
2022-10-09T23:21:20.962Z,100050.09
2022-10-09T23:23:49.279Z,100051.00
2022-10-09T23:26:20.251Z,100053.69
2022-10-09T23:28:56.222Z,100060.44
2022-10-09T23:31:24.331Z,100055.16
2022-10-09T23:33:52.107Z,100058.72
2022-10-09T23:36:21.741Z,100058.56
2022-10-09T23:38:50.146Z,100062.88
2022-10-09T23:41:20.391Z,100060.38
2022-10-09T23:43:48.457Z,100068.03
2022-10-09T23:46:23.534Z,100074.81
2022-10-09T23:48:52.103Z,100058.19
2022-10-09T23:51:21.142Z,100070.66
2022-10-09T23:53:50.237Z,100066.16
2022-10-09T23:56:18.993Z,100077.38
2022-10-09T23:58:47.003Z,100077.31
